sensor_id;sensor_type;location;lat;lon;timestamp;pressure;altitude;pressure_sealevel;temperature;humidity
19576;BME280;41589;51.196;7.074;2023-05-25T00:01:04;99784.06;;;12.75;55.05
19576;BME280;41589;51.196;7.074;2023-05-25T00:06:05;99791.97;;;12.58;55.59
19576;BME280;41589;51.196;7.074;2023-05-25T00:11:06;99793.72;;;12.42;55.97
19576;BME280;41589;51.196;7.074;2023-05-25T00:16:07;99794.91;;;12.32;56.58
19576;BME280;41589;51.196;7.074;2023-05-25T00:21:08;99795.38;;;12.31;56.72
19576;BME280;41589;51.196;7.074;2023-05-25T00:26:09;99789.03;;;12.27;56.75
19576;BME280;41589;51.196;7.074;2023-05-25T00:31:13;99790.44;;;12.22;57.09
19576;BME280;41589;51.196;7.074;2023-05-25T00:36:14;99785.50;;;12.13;57.22
19576;BME280;41589;51.196;7.074;2023-05-25T00:41:16;99786.09;;;12.08;57.54
19576;BME280;41589;51.196;7.074;2023-05-25T00:46:22;99783.75;;;11.94;58.18
19576;BME280;41589;51.196;7.074;2023-05-25T00:51:28;99777.91;;;11.89;58.57
19576;BME280;41589;51.196;7.074;2023-05-25T00:56:36;99764.00;;;11.94;58.75
19576;BME280;41589;51.196;7.074;2023-05-25T01:01:40;99779.19;;;12.09;58.63
19576;BME280;41589;51.196;7.074;2023-05-25T01:06:47;99776.75;;;11.99;58.46
19576;BME280;41589;51.196;7.074;2023-05-25T01:11:50;99767.50;;;11.98;58.75
19576;BME280;41589;51.196;7.074;2023-05-25T01:16:51;99774.13;;;12.04;58.41
19576;BME280;41589;51.196;7.074;2023-05-25T01:22:12;99782.72;;;12.01;58.57
19576;BME280;41589;51.196;7.074;2023-05-25T01:27:22;99781.63;;;11.98;58.73
19576;BME280;41589;51.196;7.074;2023-05-25T01:32:25;99788.28;;;11.92;58.91
19576;BME280;41589;51.196;7.074;2023-05-25T01:37:28;99790.78;;;11.90;59.14
19576;BME280;41589;51.196;7.074;2023-05-25T01:42:31;99783.56;;;11.89;59.20
19576;BME280;41589;51.196;7.074;2023-05-25T01:47:56;99786.56;;;11.94;59.49
19576;BME280;41589;51.196;7.074;2023-05-25T01:53:09;99796.03;;;12.00;59.61
19576;BME280;41589;51.196;7.074;2023-05-25T01:58:15;99786.66;;;12.03;59.27
19576;BME280;41589;51.196;7.074;2023-05-25T02:03:16;99787.78;;;12.06;59.37
19576;BME280;41589;51.196;7.074;2023-05-25T02:08:22;99775.84;;;12.02;59.58
19576;BME280;41589;51.196;7.074;2023-05-25T02:18:55;99782.63;;;11.92;60.17
19576;BME280;41589;51.196;7.074;2023-05-25T02:23:57;99776.88;;;11.95;60.39
19576;BME280;41589;51.196;7.074;2023-05-25T02:28:58;99770.31;;;11.98;60.33
19576;BME280;41589;51.196;7.074;2023-05-25T02:34:01;99762.75;;;11.95;60.38
19576;BME280;41589;51.196;7.074;2023-05-25T02:39:02;99769.19;;;11.96;60.27
19576;BME280;41589;51.196;7.074;2023-05-25T02:44:05;99765.72;;;11.92;60.42
19576;BME280;41589;51.196;7.074;2023-05-25T02:49:06;99769.31;;;11.92;60.69
19576;BME280;41589;51.196;7.074;2023-05-25T02:54:08;99783.09;;;11.90;60.77
19576;BME280;41589;51.196;7.074;2023-05-25T02:59:08;99788.16;;;11.95;60.76
19576;BME280;41589;51.196;7.074;2023-05-25T03:04:09;99784.44;;;11.98;60.54
19576;BME280;41589;51.196;7.074;2023-05-25T03:09:11;99793.00;;;11.95;60.84
19576;BME280;41589;51.196;7.074;2023-05-25T03:14:13;99791.31;;;11.97;60.77
19576;BME280;41589;51.196;7.074;2023-05-25T03:19:16;99799.56;;;11.92;60.83
19576;BME280;41589;51.196;7.074;2023-05-25T03:24:18;99801.38;;;11.85;61.00
19576;BME280;41589;51.196;7.074;2023-05-25T03:29:19;99801.66;;;11.78;61.13
19576;BME280;41589;51.196;7.074;2023-05-25T03:34:20;99799.41;;;11.61;61.20
19576;BME280;41589;51.196;7.074;2023-05-25T03:39:20;99807.78;;;11.39;61.78
19576;BME280;41589;51.196;7.074;2023-05-25T03:44:23;99813.97;;;11.08;62.61
19576;BME280;41589;51.196;7.074;2023-05-25T03:49:27;99815.06;;;10.98;63.36
19576;BME280;41589;51.196;7.074;2023-05-25T03:54:27;99826.13;;;11.05;63.73
19576;BME280;41589;51.196;7.074;2023-05-25T03:59:29;99826.34;;;11.11;63.96
19576;BME280;41589;51.196;7.074;2023-05-25T04:04:33;99828.50;;;11.07;63.86
19576;BME280;41589;51.196;7.074;2023-05-25T04:09:33;99832.88;;;11.08;64.28
19576;BME280;41589;51.196;7.074;2023-05-25T04:14:34;99829.41;;;11.16;64.44
19576;BME280;41589;51.196;7.074;2023-05-25T04:19:35;99839.25;;;11.24;64.13
19576;BME280;41589;51.196;7.074;2023-05-25T04:24:36;99834.63;;;11.31;64.73
19576;BME280;41589;51.196;7.074;2023-05-25T04:29:47;99827.75;;;11.57;64.12
19576;BME280;41589;51.196;7.074;2023-05-25T04:35:06;99845.41;;;11.70;63.05
19576;BME280;41589;51.196;7.074;2023-05-25T04:40:14;99829.16;;;11.74;63.13
19576;BME280;41589;51.196;7.074;2023-05-25T04:45:18;99862.28;;;11.96;63.05
19576;BME280;41589;51.196;7.074;2023-05-25T04:50:20;99867.13;;;12.08;62.93
19576;BME280;41589;51.196;7.074;2023-05-25T04:55:30;99862.56;;;12.23;62.38
19576;BME280;41589;51.196;7.074;2023-05-25T05:00:30;99866.59;;;12.35;62.35
19576;BME280;41589;51.196;7.074;2023-05-25T05:05:42;99874.31;;;12.56;61.88
19576;BME280;41589;51.196;7.074;2023-05-25T05:10:48;99878.66;;;12.48;61.59
19576;BME280;41589;51.196;7.074;2023-05-25T05:15:49;99879.88;;;12.47;61.67
19576;BME280;41589;51.196;7.074;2023-05-25T05:20:54;99885.91;;;12.49;62.14
19576;BME280;41589;51.196;7.074;2023-05-25T05:25:58;99888.06;;;12.67;62.07
19576;BME280;41589;51.196;7.074;2023-05-25T05:31:00;99882.47;;;12.76;61.68
19576;BME280;41589;51.196;7.074;2023-05-25T05:36:03;99897.22;;;12.71;62.16
19576;BME280;41589;51.196;7.074;2023-05-25T05:41:28;99888.72;;;12.93;62.30
19576;BME280;41589;51.196;7.074;2023-05-25T05:46:31;99895.19;;;13.24;61.89
19576;BME280;41589;51.196;7.074;2023-05-25T05:51:32;99899.47;;;13.60;61.73
19576;BME280;41589;51.196;7.074;2023-05-25T05:56:32;99905.72;;;13.86;60.47
19576;BME280;41589;51.196;7.074;2023-05-25T06:01:33;99899.31;;;14.13;60.84
19576;BME280;41589;51.196;7.074;2023-05-25T06:06:33;99911.81;;;14.43;60.42
19576;BME280;41589;51.196;7.074;2023-05-25T06:11:35;99905.50;;;14.39;59.45
19576;BME280;41589;51.196;7.074;2023-05-25T06:16:36;99917.16;;;14.50;60.30
19576;BME280;41589;51.196;7.074;2023-05-25T06:21:37;99927.88;;;14.64;59.24
19576;BME280;41589;51.196;7.074;2023-05-25T06:26:38;99935.25;;;14.53;59.01
19576;BME280;41589;51.196;7.074;2023-05-25T06:31:38;99929.09;;;14.45;59.16
19576;BME280;41589;51.196;7.074;2023-05-25T06:36:38;99929.00;;;14.76;59.73
19576;BME280;41589;51.196;7.074;2023-05-25T06:41:39;99937.19;;;15.01;58.06
19576;BME280;41589;51.196;7.074;2023-05-25T06:46:40;99940.63;;;15.06;57.02
19576;BME280;41589;51.196;7.074;2023-05-25T06:51:42;99934.81;;;15.09;57.85
19576;BME280;41589;51.196;7.074;2023-05-25T06:56:43;99946.19;;;14.82;57.93
19576;BME280;41589;51.196;7.074;2023-05-25T07:01:46;99950.69;;;15.34;57.63
19576;BME280;41589;51.196;7.074;2023-05-25T07:06:46;99955.09;;;15.26;56.92
19576;BME280;41589;51.196;7.074;2023-05-25T07:11:47;99965.53;;;15.20;56.37
19576;BME280;41589;51.196;7.074;2023-05-25T07:16:47;99957.34;;;15.03;57.26
19576;BME280;41589;51.196;7.074;2023-05-25T07:21:48;99970.84;;;15.45;56.26
19576;BME280;41589;51.196;7.074;2023-05-25T07:26:48;99969.81;;;15.67;57.00
19576;BME280;41589;51.196;7.074;2023-05-25T07:31:48;99970.94;;;15.69;55.56
19576;BME280;41589;51.196;7.074;2023-05-25T07:36:49;99979.25;;;15.82;55.36
19576;BME280;41589;51.196;7.074;2023-05-25T07:41:49;99973.28;;;16.13;55.66
19576;BME280;41589;51.196;7.074;2023-05-25T07:46:50;99963.59;;;15.96;54.75
19576;BME280;41589;51.196;7.074;2023-05-25T07:52:10;99973.50;;;16.00;54.05
19576;BME280;41589;51.196;7.074;2023-05-25T07:57:16;99973.38;;;16.28;52.20
19576;BME280;41589;51.196;7.074;2023-05-25T08:02:29;99976.53;;;16.30;52.98
19576;BME280;41589;51.196;7.074;2023-05-25T08:07:31;99982.81;;;16.34;51.21
19576;BME280;41589;51.196;7.074;2023-05-25T08:12:35;99982.44;;;16.17;52.25
19576;BME280;41589;51.196;7.074;2023-05-25T08:17:40;99981.91;;;16.28;52.62
19576;BME280;41589;51.196;7.074;2023-05-25T08:22:43;99989.63;;;16.27;52.35
19576;BME280;41589;51.196;7.074;2023-05-25T08:27:44;99983.25;;;16.41;51.96
19576;BME280;41589;51.196;7.074;2023-05-25T08:32:44;99984.81;;;16.09;51.75
19576;BME280;41589;51.196;7.074;2023-05-25T08:37:45;99983.97;;;16.51;51.88
19576;BME280;41589;51.196;7.074;2023-05-25T08:42:53;99993.69;;;16.68;50.44
19576;BME280;41589;51.196;7.074;2023-05-25T08:47:58;99986.63;;;16.31;50.41
19576;BME280;41589;51.196;7.074;2023-05-25T08:53:04;100006.16;;;16.38;50.18
19576;BME280;41589;51.196;7.074;2023-05-25T08:58:16;100000.03;;;16.87;49.38
19576;BME280;41589;51.196;7.074;2023-05-25T09:03:18;99989.16;;;17.39;48.66
19576;BME280;41589;51.196;7.074;2023-05-25T09:08:25;99989.72;;;17.43;48.76
19576;BME280;41589;51.196;7.074;2023-05-25T09:13:26;99989.41;;;17.26;46.99
19576;BME280;41589;51.196;7.074;2023-05-25T09:18:29;99998.75;;;16.88;48.16
19576;BME280;41589;51.196;7.074;2023-05-25T09:23:36;99995.75;;;16.68;48.12
19576;BME280;41589;51.196;7.074;2023-05-25T09:28:52;100002.56;;;17.24;47.22
19576;BME280;41589;51.196;7.074;2023-05-25T09:34:12;99994.91;;;18.18;48.09
19576;BME280;41589;51.196;7.074;2023-05-25T09:39:12;100018.47;;;18.34;47.10
19576;BME280;41589;51.196;7.074;2023-05-25T09:44:13;100002.63;;;18.33;45.78
19576;BME280;41589;51.196;7.074;2023-05-25T09:49:13;99998.13;;;18.26;46.40
19576;BME280;41589;51.196;7.074;2023-05-25T09:54:17;100015.81;;;18.45;44.82
19576;BME280;41589;51.196;7.074;2023-05-25T09:59:22;100005.56;;;18.53;43.99
19576;BME280;41589;51.196;7.074;2023-05-25T10:04:22;100002.69;;;18.53;45.35
19576;BME280;41589;51.196;7.074;2023-05-25T10:09:23;100016.75;;;18.77;43.51
19576;BME280;41589;51.196;7.074;2023-05-25T10:14:28;100018.66;;;18.45;43.86
19576;BME280;41589;51.196;7.074;2023-05-25T10:19:54;100022.94;;;17.91;43.84
19576;BME280;41589;51.196;7.074;2023-05-25T10:30:14;100043.06;;;17.87;44.25
19576;BME280;41589;51.196;7.074;2023-05-25T10:35:16;100037.75;;;17.12;45.96
19576;BME280;41589;51.196;7.074;2023-05-25T10:40:19;100049.16;;;17.26;45.14
19576;BME280;41589;51.196;7.074;2023-05-25T10:45:21;100043.25;;;17.15;46.34
19576;BME280;41589;51.196;7.074;2023-05-25T10:50:24;100034.00;;;17.06;46.65
19576;BME280;41589;51.196;7.074;2023-05-25T10:55:27;100048.97;;;16.58;46.45
19576;BME280;41589;51.196;7.074;2023-05-25T11:00:31;100045.69;;;16.84;47.51
19576;BME280;41589;51.196;7.074;2023-05-25T11:05:34;100057.66;;;16.55;47.38
19576;BME280;41589;51.196;7.074;2023-05-25T11:10:42;100050.41;;;16.54;47.86
19576;BME280;41589;51.196;7.074;2023-05-25T11:26:22;100038.91;;;15.64;49.39
19576;BME280;41589;51.196;7.074;2023-05-25T11:31:33;100053.22;;;15.78;48.69
19576;BME280;41589;51.196;7.074;2023-05-25T11:36:35;100052.09;;;15.94;48.55
19576;BME280;41589;51.196;7.074;2023-05-25T11:41:37;100055.63;;;16.22;49.19
19576;BME280;41589;51.196;7.074;2023-05-25T11:46:37;100046.59;;;16.66;47.71
19576;BME280;41589;51.196;7.074;2023-05-25T11:51:38;100037.97;;;16.51;47.47
19576;BME280;41589;51.196;7.074;2023-05-25T11:56:41;100035.75;;;16.55;47.39
19576;BME280;41589;51.196;7.074;2023-05-25T12:01:42;100033.91;;;16.43;47.65
19576;BME280;41589;51.196;7.074;2023-05-25T12:06:42;100036.97;;;16.30;46.84
19576;BME280;41589;51.196;7.074;2023-05-25T12:11:43;100030.47;;;16.63;46.72
19576;BME280;41589;51.196;7.074;2023-05-25T12:16:47;100033.44;;;16.44;46.31
19576;BME280;41589;51.196;7.074;2023-05-25T12:22:14;100024.19;;;16.35;46.74
19576;BME280;41589;51.196;7.074;2023-05-25T12:27:21;100026.66;;;16.42;47.05
19576;BME280;41589;51.196;7.074;2023-05-25T12:32:22;100020.41;;;16.29;46.36
19576;BME280;41589;51.196;7.074;2023-05-25T12:37:25;100014.97;;;16.07;47.16
19576;BME280;41589;51.196;7.074;2023-05-25T12:42:25;100016.78;;;16.28;47.56
19576;BME280;41589;51.196;7.074;2023-05-25T12:47:29;100001.69;;;16.46;46.43
19576;BME280;41589;51.196;7.074;2023-05-25T12:57:33;100003.97;;;16.66;45.69
19576;BME280;41589;51.196;7.074;2023-05-25T13:02:36;100006.53;;;17.02;46.47
19576;BME280;41589;51.196;7.074;2023-05-25T13:07:37;100006.66;;;17.08;45.89
19576;BME280;41589;51.196;7.074;2023-05-25T13:12:42;99992.94;;;16.59;46.54
19576;BME280;41589;51.196;7.074;2023-05-25T13:17:47;99999.47;;;16.98;46.31
19576;BME280;41589;51.196;7.074;2023-05-25T13:22:50;99991.66;;;17.22;46.15
19576;BME280;41589;51.196;7.074;2023-05-25T13:27:51;99998.16;;;17.38;45.33
19576;BME280;41589;51.196;7.074;2023-05-25T13:32:53;99989.59;;;17.23;46.07
19576;BME280;41589;51.196;7.074;2023-05-25T13:37:54;99994.97;;;16.58;45.76
19576;BME280;41589;51.196;7.074;2023-05-25T13:42:58;99999.84;;;16.34;47.38
19576;BME280;41589;51.196;7.074;2023-05-25T13:47:58;99994.88;;;17.00;46.70
19576;BME280;41589;51.196;7.074;2023-05-25T13:52:59;99974.97;;;17.15;45.54
19576;BME280;41589;51.196;7.074;2023-05-25T13:58:03;99981.75;;;16.79;45.83
19576;BME280;41589;51.196;7.074;2023-05-25T14:03:09;99986.47;;;16.58;45.87
19576;BME280;41589;51.196;7.074;2023-05-25T14:08:09;99989.28;;;17.06;46.18
19576;BME280;41589;51.196;7.074;2023-05-25T14:13:15;99998.41;;;16.62;46.37
19576;BME280;41589;51.196;7.074;2023-05-25T14:18:18;99988.50;;;16.67;46.41
19576;BME280;41589;51.196;7.074;2023-05-25T14:23:19;99982.31;;;16.68;46.67
19576;BME280;41589;51.196;7.074;2023-05-25T14:28:20;99970.97;;;16.83;46.07
19576;BME280;41589;51.196;7.074;2023-05-25T14:33:26;99958.34;;;16.84;46.81
19576;BME280;41589;51.196;7.074;2023-05-25T14:38:27;99986.50;;;17.50;46.06
19576;BME280;41589;51.196;7.074;2023-05-25T14:43:29;99968.81;;;17.46;45.91
19576;BME280;41589;51.196;7.074;2023-05-25T14:48:36;99969.91;;;17.49;46.04
19576;BME280;41589;51.196;7.074;2023-05-25T14:53:37;99976.00;;;17.42;44.87
19576;BME280;41589;51.196;7.074;2023-05-25T14:58:37;99966.06;;;17.37;45.10
19576;BME280;41589;51.196;7.074;2023-05-25T15:03:38;99968.44;;;17.39;45.62
19576;BME280;41589;51.196;7.074;2023-05-25T15:08:41;99969.19;;;16.71;45.64
19576;BME280;41589;51.196;7.074;2023-05-25T15:13:42;99973.09;;;16.73;45.83
19576;BME280;41589;51.196;7.074;2023-05-25T15:18:43;99971.75;;;17.22;45.23
19576;BME280;41589;51.196;7.074;2023-05-25T15:23:43;99953.91;;;17.51;45.06
19576;BME280;41589;51.196;7.074;2023-05-25T15:28:44;99961.66;;;17.51;44.18
19576;BME280;41589;51.196;7.074;2023-05-25T15:33:51;99978.88;;;17.71;43.05
19576;BME280;41589;51.196;7.074;2023-05-25T15:39:09;99948.13;;;17.46;43.62
19576;BME280;41589;51.196;7.074;2023-05-25T15:44:11;99949.91;;;17.28;44.17
19576;BME280;41589;51.196;7.074;2023-05-25T15:49:14;99929.75;;;17.17;44.71
19576;BME280;41589;51.196;7.074;2023-05-25T15:54:21;99948.50;;;17.09;44.83
19576;BME280;41589;51.196;7.074;2023-05-25T15:59:25;99944.00;;;17.47;44.52
19576;BME280;41589;51.196;7.074;2023-05-25T16:04:25;99940.53;;;17.87;44.32
19576;BME280;41589;51.196;7.074;2023-05-25T16:09:28;99934.63;;;18.05;43.16
19576;BME280;41589;51.196;7.074;2023-05-25T16:14:30;99939.59;;;17.75;42.94
19576;BME280;41589;51.196;7.074;2023-05-25T16:19:31;99943.44;;;17.57;43.69
19576;BME280;41589;51.196;7.074;2023-05-25T16:24:39;99931.94;;;17.67;43.78
19576;BME280;41589;51.196;7.074;2023-05-25T16:29:40;99928.50;;;17.18;44.37
19576;BME280;41589;51.196;7.074;2023-05-25T16:34:41;99939.38;;;17.35;44.58
19576;BME280;41589;51.196;7.074;2023-05-25T16:39:56;99944.97;;;17.44;44.49
19576;BME280;41589;51.196;7.074;2023-05-25T16:44:59;99940.06;;;17.44;44.19
19576;BME280;41589;51.196;7.074;2023-05-25T16:50:00;99940.78;;;17.39;43.85
19576;BME280;41589;51.196;7.074;2023-05-25T16:55:01;99939.19;;;17.38;43.81
19576;BME280;41589;51.196;7.074;2023-05-25T17:00:01;99938.31;;;17.32;43.70
19576;BME280;41589;51.196;7.074;2023-05-25T17:05:02;99932.59;;;17.17;44.44
19576;BME280;41589;51.196;7.074;2023-05-25T17:10:06;99929.38;;;17.24;44.82
19576;BME280;41589;51.196;7.074;2023-05-25T17:15:07;99935.25;;;17.36;44.69
19576;BME280;41589;51.196;7.074;2023-05-25T17:20:13;99933.66;;;17.05;45.48
19576;BME280;41589;51.196;7.074;2023-05-25T17:25:17;99927.09;;;17.14;45.22
19576;BME280;41589;51.196;7.074;2023-05-25T17:30:20;99927.50;;;17.21;44.91
19576;BME280;41589;51.196;7.074;2023-05-25T17:35:21;99923.47;;;16.98;44.90
19576;BME280;41589;51.196;7.074;2023-05-25T17:40:22;99931.63;;;16.67;45.64
19576;BME280;41589;51.196;7.074;2023-05-25T17:45:22;99928.25;;;16.92;45.46
19576;BME280;41589;51.196;7.074;2023-05-25T17:50:23;99933.16;;;17.07;45.08
19576;BME280;41589;51.196;7.074;2023-05-25T17:55:24;99926.44;;;17.33;44.82
19576;BME280;41589;51.196;7.074;2023-05-25T18:00:25;99926.88;;;16.88;44.89
19576;BME280;41589;51.196;7.074;2023-05-25T18:05:30;99931.13;;;17.07;45.17
19576;BME280;41589;51.196;7.074;2023-05-25T18:10:34;99942.03;;;17.09;45.08
19576;BME280;41589;51.196;7.074;2023-05-25T18:15:44;99925.78;;;16.85;45.91
19576;BME280;41589;51.196;7.074;2023-05-25T18:20:47;99931.69;;;16.96;45.26
19576;BME280;41589;51.196;7.074;2023-05-25T18:26:11;99933.78;;;17.11;45.42
19576;BME280;41589;51.196;7.074;2023-05-25T18:31:42;99931.31;;;17.03;45.48
19576;BME280;41589;51.196;7.074;2023-05-25T18:36:49;99929.91;;;16.84;45.96
19576;BME280;41589;51.196;7.074;2023-05-25T18:42:08;99942.34;;;16.63;46.64
19576;BME280;41589;51.196;7.074;2023-05-25T18:47:22;99938.00;;;16.53;46.80
19576;BME280;41589;51.196;7.074;2023-05-25T18:52:26;99949.69;;;16.55;46.93
19576;BME280;41589;51.196;7.074;2023-05-25T18:57:27;99946.25;;;16.27;47.43
19576;BME280;41589;51.196;7.074;2023-05-25T19:02:30;99936.50;;;16.42;47.44
19576;BME280;41589;51.196;7.074;2023-05-25T19:07:47;99944.72;;;16.40;47.80
19576;BME280;41589;51.196;7.074;2023-05-25T19:13:19;99936.88;;;16.35;47.57
19576;BME280;41589;51.196;7.074;2023-05-25T19:18:26;99939.66;;;16.21;47.94
19576;BME280;41589;51.196;7.074;2023-05-25T19:23:35;99935.41;;;16.16;48.28
19576;BME280;41589;51.196;7.074;2023-05-25T19:28:51;99945.03;;;16.18;48.14
19576;BME280;41589;51.196;7.074;2023-05-25T19:34:07;99948.53;;;16.13;48.48
19576;BME280;41589;51.196;7.074;2023-05-25T19:39:16;99962.16;;;16.00;48.78
19576;BME280;41589;51.196;7.074;2023-05-25T19:44:35;99969.25;;;16.05;48.74
19576;BME280;41589;51.196;7.074;2023-05-25T19:49:58;99969.06;;;16.08;49.02
19576;BME280;41589;51.196;7.074;2023-05-25T19:55:05;99969.31;;;15.86;48.93
19576;BME280;41589;51.196;7.074;2023-05-25T20:00:17;99975.50;;;15.76;49.39
19576;BME280;41589;51.196;7.074;2023-05-25T20:05:40;99962.22;;;15.82;49.31
19576;BME280;41589;51.196;7.074;2023-05-25T20:10:43;99966.84;;;15.70;49.37
19576;BME280;41589;51.196;7.074;2023-05-25T20:15:53;99964.81;;;15.62;49.53
19576;BME280;41589;51.196;7.074;2023-05-25T20:21:01;99970.03;;;15.54;49.63
19576;BME280;41589;51.196;7.074;2023-05-25T20:26:19;99977.00;;;15.44;50.20
19576;BME280;41589;51.196;7.074;2023-05-25T20:31:50;99974.47;;;15.46;50.36
19576;BME280;41589;51.196;7.074;2023-05-25T20:37:19;99972.28;;;15.41;50.44
19576;BME280;41589;51.196;7.074;2023-05-25T20:42:38;99971.13;;;15.47;50.52
19576;BME280;41589;51.196;7.074;2023-05-25T20:47:56;99967.88;;;15.30;50.57
19576;BME280;41589;51.196;7.074;2023-05-25T20:53:41;99986.47;;;15.22;50.92
19576;BME280;41589;51.196;7.074;2023-05-25T20:58:52;99990.59;;;15.12;51.16
19576;BME280;41589;51.196;7.074;2023-05-25T21:04:22;99994.03;;;15.16;51.26
19576;BME280;41589;51.196;7.074;2023-05-25T21:09:46;99992.63;;;15.21;51.35
19576;BME280;41589;51.196;7.074;2023-05-25T21:15:25;99991.06;;;15.20;51.12
19576;BME280;41589;51.196;7.074;2023-05-25T21:21:02;99994.38;;;15.09;51.22
19576;BME280;41589;51.196;7.074;2023-05-25T21:26:54;99992.94;;;15.14;51.49
19576;BME280;41589;51.196;7.074;2023-05-25T21:44:46;100009.31;;;14.91;51.42
19576;BME280;41589;51.196;7.074;2023-05-25T21:49:47;100005.22;;;14.83;51.83
19576;BME280;41589;51.196;7.074;2023-05-25T21:54:52;100005.16;;;14.65;52.04
19576;BME280;41589;51.196;7.074;2023-05-25T21:59:52;100013.50;;;14.59;52.51
19576;BME280;41589;51.196;7.074;2023-05-25T22:04:53;100010.34;;;14.57;52.25
19576;BME280;41589;51.196;7.074;2023-05-25T22:09:53;100009.56;;;14.48;52.53
19576;BME280;41589;51.196;7.074;2023-05-25T22:15:00;100010.91;;;14.34;52.96
19576;BME280;41589;51.196;7.074;2023-05-25T22:20:16;100014.81;;;14.18;53.17
19576;BME280;41589;51.196;7.074;2023-05-25T22:25:22;100024.00;;;14.00;53.91
19576;BME280;41589;51.196;7.074;2023-05-25T22:30:41;100038.09;;;13.91;53.89
19576;BME280;41589;51.196;7.074;2023-05-25T22:35:48;100033.88;;;13.65;55.12
19576;BME280;41589;51.196;7.074;2023-05-25T22:40:58;100042.63;;;13.36;56.38
19576;BME280;41589;51.196;7.074;2023-05-25T22:46:08;100040.19;;;13.25;57.19
19576;BME280;41589;51.196;7.074;2023-05-25T22:51:09;100042.53;;;13.26;57.30
19576;BME280;41589;51.196;7.074;2023-05-25T22:56:11;100062.19;;;13.30;57.21
19576;BME280;41589;51.196;7.074;2023-05-25T23:01:27;100061.31;;;13.20;57.63
19576;BME280;41589;51.196;7.074;2023-05-25T23:06:32;100060.53;;;13.20;58.09
19576;BME280;41589;51.196;7.074;2023-05-25T23:11:32;100058.44;;;13.11;58.46
19576;BME280;41589;51.196;7.074;2023-05-25T23:16:33;100051.69;;;12.96;58.54
19576;BME280;41589;51.196;7.074;2023-05-25T23:21:36;100053.81;;;13.05;58.67
19576;BME280;41589;51.196;7.074;2023-05-25T23:31:56;100055.00;;;12.94;58.93
19576;BME280;41589;51.196;7.074;2023-05-25T23:37:05;100054.34;;;12.90;59.18
19576;BME280;41589;51.196;7.074;2023-05-25T23:42:09;100054.34;;;12.90;59.04
19576;BME280;41589;51.196;7.074;2023-05-25T23:47:33;100064.06;;;12.77;59.51
19576;BME280;41589;51.196;7.074;2023-05-25T23:52:43;100061.94;;;12.68;59.67
19576;BME280;41589;51.196;7.074;2023-05-25T23:57:58;100061.97;;;12.55;59.95
